Time;durP1;ratioP1;P1;durP2;ratioP2;P2;SDS_P1;SDS_P2;PMS_P1;PMS_P2;Temp;Humidity;BMP_temperature;BMP_pressure;BME280_temperature;BME280_humidity;BME280_pressure;Samples;Min_cycle;Max_cycle;Signal;HPM_P1;HPM_P2
2022/05/16 00:00:21;;;;;;;3.63;3.17;;;18.00;99.90;;;;;;4988496;28;20462;-66
2022/05/16 00:02:46;;;;;;;3.70;3.40;;;18.00;99.90;;;;;;4988238;28;20786;-66
2022/05/16 00:05:12;;;;;;;4.00;3.73;;;18.10;99.90;;;;;;4990477;28;20532;-66
2022/05/16 00:07:38;;;;;;;4.40;3.30;;;18.10;99.90;;;;;;4989811;28;20211;-66
2022/05/16 00:10:05;;;;;;;3.40;3.20;;;18.10;99.90;;;;;;4989970;28;20967;-66
2022/05/16 00:12:31;;;;;;;3.83;3.53;;;18.10;99.30;;;;;;4988334;28;20184;-66
2022/05/16 00:14:56;;;;;;;3.67;3.30;;;18.10;99.90;;;;;;4988619;28;20481;-66
2022/05/16 00:17:22;;;;;;;3.67;3.30;;;18.10;99.70;;;;;;4988802;28;20176;-65
2022/05/16 00:19:47;;;;;;;5.23;3.67;;;18.00;99.90;;;;;;4990820;28;20198;-66
2022/05/16 00:22:13;;;;;;;4.73;4.43;;;18.00;99.80;;;;;;4989721;28;20252;-66
2022/05/16 00:24:41;;;;;;;5.60;5.10;;;18.00;99.40;;;;;;4988455;28;20242;-66
2022/05/16 00:27:07;;;;;;;4.93;4.37;;;18.00;99.90;;;;;;4988014;28;20207;-67
2022/05/16 00:29:32;;;;;;;6.60;4.60;;;18.00;99.90;;;;;;4988882;28;20482;-66
2022/05/16 00:31:58;;;;;;;3.93;3.63;;;18.00;99.90;;;;;;4989409;28;20574;-66
2022/05/16 00:34:23;;;;;;;3.87;3.43;;;18.00;99.90;;;;;;4987328;28;20226;-66
2022/05/16 00:36:49;;;;;;;3.30;3.10;;;17.90;99.90;;;;;;4986475;28;20699;-66
2022/05/16 00:39:17;;;;;;;5.23;3.93;;;17.90;99.90;;;;;;4989026;28;20183;-66
2022/05/16 00:41:43;;;;;;;3.60;3.30;;;17.90;99.90;;;;;;4989292;28;20238;-66
2022/05/16 00:44:09;;;;;;;3.50;3.20;;;17.90;99.90;;;;;;4988666;28;20901;-66
2022/05/16 00:46:35;;;;;;;7.60;4.00;;;17.80;99.90;;;;;;4988224;28;20430;-66
2022/05/16 00:49:03;;;;;;;3.90;3.60;;;17.70;99.90;;;;;;4989255;28;20514;-65
2022/05/16 00:51:54;;;;;;;4.47;3.60;;;17.70;99.90;;;;;;4990170;28;20184;-66
2022/05/16 00:54:28;;;;;;;4.80;3.40;;;17.60;99.90;;;;;;4989226;28;20481;-66
2022/05/16 00:56:59;;;;;;;4.40;4.00;;;17.60;99.90;;;;;;4989125;28;20486;-67
2022/05/16 00:59:33;;;;;;;3.23;3.03;;;17.50;99.90;;;;;;4989741;28;20878;-67
2022/05/16 01:04:48;;;;;;;4.37;3.97;;;17.40;99.90;;;;;;4985433;28;20465;-65
2022/05/16 01:07:21;;;;;;;4.03;3.40;;;17.20;99.90;;;;;;4987955;28;20524;-66
2022/05/16 01:09:46;;;;;;;3.60;3.17;;;17.20;99.90;;;;;;4988311;28;20439;-66
2022/05/16 01:12:13;;;;;;;4.03;3.60;;;17.20;99.90;;;;;;4986748;28;20446;-66
2022/05/16 01:14:43;;;;;;;4.73;4.27;;;17.20;99.90;;;;;;4987605;28;20298;-66
2022/05/16 01:17:09;;;;;;;4.20;3.80;;;17.20;99.90;;;;;;4988823;28;20462;-66
2022/05/16 01:19:35;;;;;;;5.83;4.07;;;17.00;99.90;;;;;;4988987;28;20442;-66
2022/05/16 01:22:16;;;;;;;3.93;3.63;;;17.00;99.90;;;;;;4988934;28;21013;-65
2022/05/16 01:24:42;;;;;;;3.90;3.60;;;16.90;99.90;;;;;;4989470;28;20206;-67
2022/05/16 01:27:08;;;;;;;8.13;4.07;;;16.80;99.90;;;;;;4987112;28;20482;-66
2022/05/16 01:29:33;;;;;;;4.43;4.03;;;16.80;99.90;;;;;;4987785;28;20439;-66
2022/05/16 01:31:59;;;;;;;3.80;3.50;;;16.80;99.90;;;;;;4990373;28;20195;-66
2022/05/16 01:34:24;;;;;;;5.40;4.83;;;16.80;99.90;;;;;;4986001;28;20474;-66
2022/05/16 01:36:50;;;;;;;3.40;3.10;;;16.80;99.90;;;;;;4986275;28;21044;-65
2022/05/16 01:39:15;;;;;;;4.30;3.67;;;16.80;99.90;;;;;;4987817;28;20198;-66
2022/05/16 01:41:41;;;;;;;4.20;3.90;;;16.80;99.90;;;;;;4990907;28;20600;-66
2022/05/16 01:44:06;;;;;;;6.67;4.60;;;16.80;99.90;;;;;;4988505;28;20831;-65
2022/05/16 01:46:36;;;;;;;3.43;3.23;;;16.80;99.90;;;;;;4989456;28;20183;-67
2022/05/16 01:49:03;;;;;;;4.10;3.70;;;16.90;99.90;;;;;;4985736;28;20202;-65
2022/05/16 01:51:29;;;;;;;7.53;4.07;;;16.90;99.90;;;;;;4988005;28;20431;-66
2022/05/16 01:53:56;;;;;;;3.93;3.63;;;16.90;99.90;;;;;;4989635;28;20548;-66
2022/05/16 01:56:22;;;;;;;3.80;3.50;;;16.90;99.90;;;;;;4990810;28;20691;-66
2022/05/16 01:58:48;;;;;;;4.90;3.67;;;16.80;99.90;;;;;;4986855;28;20576;-66
2022/05/16 02:01:14;;;;;;;3.53;3.33;;;16.80;99.90;;;;;;4989670;28;20202;-66
2022/05/16 02:03:44;;;;;;;4.00;3.70;;;16.70;99.90;;;;;;4989507;28;20455;-65
2022/05/16 02:06:10;;;;;;;4.00;3.60;;;16.80;99.90;;;;;;4988574;28;20991;-66
2022/05/16 02:08:37;;;;;;;4.40;3.47;;;16.80;99.90;;;;;;4984626;28;20549;-66
2022/05/16 02:11:03;;;;;;;4.20;3.80;;;16.80;99.90;;;;;;4989478;28;20194;-66
2022/05/16 02:13:29;;;;;;;5.63;4.37;;;16.80;99.90;;;;;;4987869;28;20879;-65
2022/05/16 02:15:54;;;;;;;5.33;4.83;;;16.80;99.90;;;;;;4984693;28;20445;-65
2022/05/16 02:18:20;;;;;;;4.23;3.93;;;16.70;99.90;;;;;;4989397;28;20190;-66
2022/05/16 02:20:46;;;;;;;4.90;3.80;;;16.60;99.90;;;;;;4987814;28;20204;-66
2022/05/16 02:25:57;;;;;;;7.13;5.10;;;16.50;99.90;;;;;;4989532;28;20213;-66
2022/05/16 02:28:23;;;;;;;4.67;3.90;;;16.50;99.90;;;;;;4985897;28;20441;-65
2022/05/16 02:30:50;;;;;;;4.70;3.93;;;16.60;99.90;;;;;;4984122;28;20991;-66
2022/05/16 02:33:16;;;;;;;4.17;3.80;;;16.60;99.90;;;;;;4990192;28;20466;-65
2022/05/16 02:35:44;;;;;;;3.80;3.50;;;16.50;99.90;;;;;;4989626;28;20434;-66
2022/05/16 02:38:12;;;;;;;4.20;3.87;;;16.50;99.90;;;;;;4989749;28;20828;-67
2022/05/16 02:40:38;;;;;;;4.40;4.07;;;16.60;99.90;;;;;;4988310;28;20462;-66
2022/05/16 02:43:04;;;;;;;3.87;3.67;;;16.60;99.90;;;;;;4982605;28;20449;-66
2022/05/16 02:45:31;;;;;;;3.87;3.57;;;16.60;99.90;;;;;;4985361;28;20443;-66
2022/05/16 02:47:57;;;;;;;3.87;3.53;;;16.60;99.90;;;;;;4981747;28;20442;-66
2022/05/16 02:50:24;;;;;;;3.50;3.30;;;16.60;99.90;;;;;;4989343;28;20852;-66
2022/05/16 02:52:54;;;;;;;6.20;5.17;;;16.70;99.90;;;;;;4988046;28;20439;-66
2022/05/16 02:55:20;;;;;;;5.10;4.20;;;16.70;99.90;;;;;;4988043;28;20462;-66
2022/05/16 02:57:46;;;;;;;4.70;4.40;;;16.80;99.90;;;;;;4988182;28;20534;-66
2022/05/16 03:00:13;;;;;;;4.20;3.80;;;16.80;99.90;;;;;;4990127;28;20514;-65
2022/05/16 03:02:39;;;;;;;3.73;3.50;;;16.90;99.90;;;;;;4991929;28;20190;-66
2022/05/16 03:05:06;;;;;;;5.50;3.90;;;16.90;99.90;;;;;;4992717;28;20458;-66
2022/05/16 03:07:32;;;;;;;6.37;4.20;;;16.80;99.90;;;;;;4992921;28;20446;-66
2022/05/16 03:09:58;;;;;;;3.43;3.07;;;16.80;99.90;;;;;;4991470;28;20438;-65
2022/05/16 03:12:24;;;;;;;4.47;3.80;;;16.80;99.90;;;;;;4991030;28;20645;-66
2022/05/16 03:14:49;;;;;;;5.77;3.80;;;16.90;99.90;;;;;;4990810;28;20265;-66
2022/05/16 03:17:15;;;;;;;4.10;3.70;;;17.00;99.90;;;;;;4993705;28;20208;-65
2022/05/16 03:19:41;;;;;;;4.00;3.60;;;17.00;99.90;;;;;;4991669;28;20242;-66
2022/05/16 03:22:06;;;;;;;3.73;3.43;;;17.10;99.90;;;;;;4993134;28;20593;-66
2022/05/16 03:24:33;;;;;;;3.83;3.57;;;17.10;99.90;;;;;;4990779;28;20624;-66
2022/05/16 03:26:59;;;;;;;5.40;3.83;;;17.00;99.90;;;;;;4989742;28;20618;-66
2022/05/16 03:29:25;;;;;;;4.27;3.97;;;17.00;99.90;;;;;;4990278;28;20518;-66
2022/05/16 03:31:50;;;;;;;3.80;3.50;;;17.00;99.90;;;;;;4991303;28;20525;-66
2022/05/16 03:34:16;;;;;;;4.20;3.90;;;17.00;99.90;;;;;;4991406;28;20446;-65
2022/05/16 03:36:42;;;;;;;4.13;3.73;;;17.00;99.90;;;;;;4992136;28;20187;-66
2022/05/16 03:41:52;;;;;;;3.37;3.07;;;16.90;99.90;;;;;;4989805;28;20590;-66
2022/05/16 03:44:19;;;;;;;3.77;3.57;;;17.00;99.90;;;;;;4990259;28;20450;-66
2022/05/16 03:46:45;;;;;;;4.43;4.13;;;17.10;99.90;;;;;;4990691;28;20700;-67
2022/05/16 03:49:10;;;;;;;4.53;4.13;;;17.10;99.90;;;;;;4987838;28;20442;-66
2022/05/16 03:51:37;;;;;;;4.60;4.30;;;17.10;99.90;;;;;;4989639;28;20620;-66
2022/05/16 03:54:03;;;;;;;3.87;3.47;;;17.20;99.90;;;;;;5013526;23;20649;-68
2022/05/16 03:56:29;;;;;;;3.50;3.20;;;17.30;99.90;;;;;;5009960;28;20461;-67
2022/05/16 03:58:56;;;;;;;5.20;4.17;;;17.30;99.90;;;;;;5003968;28;20466;-66
2022/05/16 04:01:22;;;;;;;4.30;4.00;;;17.30;99.90;;;;;;5003728;28;20742;-66
2022/05/16 04:03:48;;;;;;;4.90;4.40;;;17.40;99.90;;;;;;5004100;28;20465;-68
2022/05/16 04:06:14;;;;;;;5.80;4.73;;;17.40;99.90;;;;;;4983528;28;20936;-67
2022/05/16 04:08:42;;;;;;;4.67;3.80;;;17.50;99.90;;;;;;4990354;28;20493;-66
2022/05/16 04:11:08;;;;;;;4.70;4.40;;;17.50;99.90;;;;;;4988676;28;20197;-66
2022/05/16 04:13:35;;;;;;;5.00;4.03;;;17.50;99.90;;;;;;4990786;28;20446;-69
2022/05/16 04:16:01;;;;;;;4.53;4.10;;;17.50;99.90;;;;;;4990994;28;20496;-67
2022/05/16 04:18:27;;;;;;;4.50;4.10;;;17.50;99.90;;;;;;4991340;28;20446;-67
2022/05/16 04:20:53;;;;;;;4.40;4.10;;;17.50;99.90;;;;;;4990416;28;20470;-67
2022/05/16 04:23:18;;;;;;;4.13;3.83;;;17.60;99.90;;;;;;4989884;28;20202;-68
2022/05/16 04:25:44;;;;;;;6.97;4.50;;;17.60;99.90;;;;;;4991665;28;20192;-67
2022/05/16 04:28:10;;;;;;;4.97;4.57;;;17.60;99.90;;;;;;4988865;28;20200;-66
2022/05/16 04:30:37;;;;;;;3.93;3.63;;;17.70;99.90;;;;;;4989954;28;20187;-66
2022/05/16 04:33:03;;;;;;;5.03;4.63;;;17.70;99.90;;;;;;4985158;28;20501;-66
2022/05/16 04:35:29;;;;;;;5.10;4.40;;;17.60;99.90;;;;;;4986710;28;20911;-67
2022/05/16 04:37:55;;;;;;;5.10;4.70;;;17.50;99.90;;;;;;4989875;28;20451;-67
2022/05/16 04:40:20;;;;;;;4.50;4.10;;;17.50;99.90;;;;;;4989579;28;20554;-70
2022/05/16 04:42:46;;;;;;;4.73;4.33;;;17.50;99.90;;;;;;4993139;28;20191;-67
2022/05/16 04:45:14;;;;;;;7.33;6.70;;;17.50;99.90;;;;;;4985684;28;20203;-67
2022/05/16 04:47:40;;;;;;;5.47;5.00;;;17.50;99.90;;;;;;4989688;28;20187;-67
2022/05/16 04:50:07;;;;;;;5.60;4.80;;;17.50;99.90;;;;;;4989598;28;20963;-67
2022/05/16 04:52:32;;;;;;;5.10;4.60;;;17.60;99.90;;;;;;4986846;28;20525;-67
2022/05/16 04:54:59;;;;;;;6.60;6.10;;;17.60;99.90;;;;;;4990062;28;20601;-68
2022/05/16 04:57:26;;;;;;;6.60;6.00;;;17.70;99.90;;;;;;4986546;28;20187;-66
2022/05/16 04:59:52;;;;;;;4.47;4.17;;;17.80;99.90;;;;;;4990324;28;20438;-69
2022/05/16 05:02:18;;;;;;;3.83;3.53;;;17.90;99.90;;;;;;4986486;28;20470;-67
2022/05/16 05:04:44;;;;;;;4.70;4.30;;;18.00;99.90;;;;;;4990379;28;20481;-66
2022/05/16 05:07:11;;;;;;;4.77;4.40;;;18.10;99.90;;;;;;4989915;28;20179;-66
2022/05/16 05:15:09;;;;;;;4.60;4.20;;;18.40;99.90;;;;;;4991151;28;20570;-67
2022/05/16 05:17:34;;;;;;;5.07;4.67;;;18.40;99.90;;;;;;4989717;28;20442;-67
2022/05/16 05:20:00;;;;;;;5.40;4.90;;;18.60;99.90;;;;;;4987838;28;20462;-67
2022/05/16 05:22:25;;;;;;;6.10;5.50;;;18.60;99.90;;;;;;4991335;28;20203;-67
2022/05/16 05:24:51;;;;;;;4.00;3.70;;;18.60;99.90;;;;;;4991263;28;20203;-67
2022/05/16 05:27:16;;;;;;;4.20;3.90;;;18.60;99.90;;;;;;4988383;28;20187;-68
2022/05/16 05:29:42;;;;;;;6.13;4.70;;;18.70;99.90;;;;;;4990043;28;20182;-66
2022/05/16 05:32:08;;;;;;;5.40;4.90;;;18.60;99.90;;;;;;4988238;28;20179;-67
2022/05/16 05:34:36;;;;;;;4.70;4.30;;;18.60;99.90;;;;;;4991904;28;20204;-67
2022/05/16 05:37:02;;;;;;;4.60;4.20;;;18.70;99.90;;;;;;4989996;28;20194;-66
2022/05/16 05:39:31;;;;;;;5.57;4.80;;;18.80;99.90;;;;;;4990552;28;20466;-67
2022/05/16 05:41:57;;;;;;;5.30;4.83;;;18.80;99.90;;;;;;4990926;28;20462;-68
2022/05/16 05:44:22;;;;;;;9.20;4.33;;;18.90;99.90;;;;;;4990864;28;20826;-67
2022/05/16 05:46:48;;;;;;;5.20;4.80;;;18.90;99.90;;;;;;4989973;28;20465;-68
2022/05/16 05:49:14;;;;;;;4.83;4.37;;;18.90;99.90;;;;;;4986111;28;20282;-67
2022/05/16 05:51:40;;;;;;;8.47;6.10;;;18.80;99.90;;;;;;4994726;28;20184;-66
2022/05/16 05:54:06;;;;;;;6.50;5.90;;;18.90;99.90;;;;;;4998545;28;20211;-67
2022/05/16 05:56:33;;;;;;;11.33;5.37;;;19.00;99.90;;;;;;4988378;28;20438;-67
2022/05/16 05:58:59;;;;;;;6.43;5.77;;;18.90;99.90;;;;;;4987052;28;20431;-67
2022/05/16 06:01:25;;;;;;;6.10;5.07;;;19.00;99.90;;;;;;4991247;28;20525;-66
2022/05/16 06:03:51;;;;;;;5.30;4.90;;;19.00;99.90;;;;;;4988791;28;20199;-67
2022/05/16 06:06:17;;;;;;;5.37;4.87;;;19.00;99.90;;;;;;4989912;28;20525;-71
2022/05/16 06:08:42;;;;;;;5.97;5.37;;;19.10;99.90;;;;;;4987485;28;20947;-68
2022/05/16 06:11:08;;;;;;;6.00;5.47;;;19.30;99.90;;;;;;4983960;28;20266;-70
2022/05/16 06:13:34;;;;;;;8.57;5.27;;;19.40;99.90;;;;;;4986695;28;20187;-67
2022/05/16 06:15:59;;;;;;;5.60;4.97;;;19.60;99.90;;;;;;4987217;28;20190;-68
2022/05/16 06:18:25;;;;;;;9.27;5.83;;;19.70;99.90;;;;;;4988020;28;20180;-68
2022/05/16 06:20:51;;;;;;;7.63;5.83;;;19.80;99.90;;;;;;4986532;28;20206;-65
2022/05/16 06:23:16;;;;;;;6.00;5.47;;;19.80;99.90;;;;;;4989490;28;20462;-65
2022/05/16 06:25:43;;;;;;;6.37;5.60;;;19.80;99.90;;;;;;4989488;28;20208;-65
2022/05/16 06:28:12;;;;;;;6.60;5.60;;;19.90;99.90;;;;;;4988134;28;20179;-66
2022/05/16 06:30:41;;;;;;;6.27;5.77;;;19.80;99.90;;;;;;4990068;28;20529;-65
2022/05/16 06:33:07;;;;;;;5.87;5.37;;;19.70;99.90;;;;;;4990611;28;20467;-66
2022/05/16 06:35:34;;;;;;;5.80;4.27;;;19.70;99.90;;;;;;4985019;28;20505;-66
2022/05/16 06:38:09;;;;;;;7.23;5.43;;;19.80;99.90;;;;;;4992466;28;20931;-66
2022/05/16 06:40:36;;;;;;;6.73;5.80;;;19.90;99.90;;;;;;4991571;28;20554;-67
2022/05/16 06:43:02;;;;;;;6.13;5.63;;;19.90;99.90;;;;;;4991803;28;20449;-65
2022/05/16 06:45:27;;;;;;;10.30;5.87;;;19.80;99.90;;;;;;4986729;28;20463;-66
2022/05/16 06:47:53;;;;;;;13.00;7.73;;;20.00;99.90;;;;;;4992514;28;20488;-66
2022/05/16 06:50:18;;;;;;;7.63;6.93;;;20.20;99.90;;;;;;4993455;28;20187;-65
2022/05/16 06:52:44;;;;;;;5.93;5.00;;;20.40;99.90;;;;;;4992000;28;20278;-66
2022/05/16 06:55:10;;;;;;;6.70;6.10;;;20.90;99.90;;;;;;4992025;28;20294;-66
2022/05/16 06:57:37;;;;;;;6.00;5.50;;;21.30;99.90;;;;;;4991393;28;20183;-66
2022/05/16 07:00:06;;;;;;;6.83;4.93;;;21.50;99.90;;;;;;4991393;28;20854;-67
2022/05/16 07:02:32;;;;;;;5.00;4.60;;;21.70;99.90;;;;;;4991161;28;20564;-66
2022/05/16 07:04:58;;;;;;;6.23;4.50;;;22.00;99.90;;;;;;4962948;28;20880;-68
2022/05/16 07:07:23;;;;;;;5.73;5.10;;;22.20;99.90;;;;;;4968009;28;20519;-67
2022/05/16 07:09:49;;;;;;;4.80;4.40;;;22.30;99.90;;;;;;4989983;28;20190;-66
2022/05/16 07:12:15;;;;;;;5.10;4.70;;;22.50;99.90;;;;;;4988252;28;20194;-69
2022/05/16 07:14:41;;;;;;;4.53;4.13;;;22.60;99.90;;;;;;4989322;28;20248;-67
2022/05/16 07:17:07;;;;;;;4.67;4.27;;;22.90;99.90;;;;;;4992148;28;20434;-67
2022/05/16 07:19:36;;;;;;;4.73;4.33;;;23.10;99.90;;;;;;4991352;28;20175;-67
2022/05/16 07:22:14;;;;;;;4.93;4.47;;;23.50;99.90;;;;;;4985514;28;20474;-66
2022/05/16 07:24:41;;;;;;;4.93;4.50;;;23.80;99.90;;;;;;4985075;28;20477;-67
2022/05/16 07:29:52;;;;;;;5.53;5.00;;;24.00;99.90;;;;;;4990742;28;20441;-69
2022/05/16 07:32:18;;;;;;;5.30;4.90;;;23.70;99.90;;;;;;4990118;28;20438;-67
2022/05/16 07:34:44;;;;;;;5.73;5.23;;;23.70;99.90;;;;;;4987719;28;20211;-68
2022/05/16 07:37:10;;;;;;;7.57;6.97;;;23.60;99.90;;;;;;4992325;28;20437;-66
2022/05/16 07:39:36;;;;;;;6.80;5.93;;;23.20;99.90;;;;;;4985597;28;20835;-68
2022/05/16 07:42:04;;;;;;;5.90;5.40;;;22.70;99.90;;;;;;4990792;28;20211;-71
2022/05/16 07:44:29;;;;;;;7.50;5.57;;;22.20;99.90;;;;;;5003012;28;20982;-66
2022/05/16 07:46:55;;;;;;;6.13;5.73;;;22.20;99.90;;;;;;4990289;28;20441;-67
2022/05/16 07:49:21;;;;;;;6.00;5.30;;;22.60;99.90;;;;;;4991789;28;20183;-66
2022/05/16 07:51:46;;;;;;;6.37;5.77;;;22.90;99.90;;;;;;4990437;28;20184;-66
2022/05/16 07:54:12;;;;;;;8.23;6.20;;;22.90;99.90;;;;;;4986640;28;20599;-66
2022/05/16 07:56:39;;;;;;;7.60;6.33;;;22.90;99.90;;;;;;4992968;28;20234;-67
2022/05/16 07:59:04;;;;;;;8.67;7.97;;;22.70;99.90;;;;;;4991432;28;20234;-67
2022/05/16 08:01:30;;;;;;;7.10;6.37;;;22.00;99.90;;;;;;4987755;28;20482;-69
2022/05/16 08:03:55;;;;;;;8.87;7.43;;;21.60;99.90;;;;;;4985105;28;20757;-67
2022/05/16 08:06:21;;;;;;;9.10;8.10;;;21.40;99.90;;;;;;4986156;28;20229;-67
2022/05/16 08:11:31;;;;;;;7.90;7.10;;;21.00;99.90;;;;;;4990553;28;20260;-69
2022/05/16 08:13:56;;;;;;;9.17;8.27;;;20.40;99.90;;;;;;4984555;28;20704;-66
2022/05/16 08:16:22;;;;;;;9.90;9.00;;;20.40;99.90;;;;;;4992584;28;20578;-67
2022/05/16 08:18:47;;;;;;;10.90;10.00;;;19.80;99.90;;;;;;4991165;28;20188;-68
2022/05/16 08:21:13;;;;;;;9.73;7.93;;;19.60;99.90;;;;;;4990646;28;20199;-66
2022/05/16 08:23:39;;;;;;;10.30;7.90;;;19.50;99.90;;;;;;4988648;28;20203;-68
2022/05/16 08:26:05;;;;;;;8.90;8.10;;;19.50;99.90;;;;;;4989844;28;20184;-66
2022/05/16 08:28:31;;;;;;;12.30;8.10;;;19.70;99.90;;;;;;4992122;28;20524;-69
2022/05/16 08:30:57;;;;;;;9.03;8.13;;;19.90;99.90;;;;;;4991434;28;20257;-67
2022/05/16 08:33:23;;;;;;;10.40;7.80;;;20.30;99.90;;;;;;4988163;28;20438;-72
2022/05/16 08:39:52;;;;;;;8.30;7.57;;;20.80;99.90;;;;;;4986114;28;20183;-70
2022/05/16 08:41:28;;;;;;;8.67;7.60;;;21.90;99.90;;;;;;4987819;28;20540;-67
2022/05/16 08:44:20;;;;;;;7.10;6.53;;;22.50;99.90;;;;;;4983754;28;20508;-69
2022/05/16 08:46:47;;;;;;;6.90;5.93;;;23.50;99.90;;;;;;4988725;28;20434;-66
2022/05/16 08:49:27;;;;;;;6.70;6.20;;;24.00;99.90;;;;;;4989467;28;20434;-65
2022/05/16 08:52:06;;;;;;;7.30;6.50;;;24.20;99.90;;;;;;4986209;28;21079;-67
2022/05/16 08:54:45;;;;;;;8.17;6.30;;;24.70;99.90;;;;;;4985382;28;20469;-64
2022/05/16 08:57:16;;;;;;;6.93;6.33;;;25.40;99.90;;;;;;4989714;28;20438;-64
2022/05/16 08:59:47;;;;;;;9.30;6.23;;;26.20;99.90;;;;;;4989745;28;20449;-66
2022/05/16 09:02:24;;;;;;;6.80;6.20;;;27.00;99.90;;;;;;4987165;28;20474;-64
2022/05/16 09:05:23;;;;;;;7.20;6.50;;;27.20;99.90;;;;;;4980761;28;20458;-67
2022/05/16 09:07:54;;;;;;;6.43;5.73;;;27.10;99.90;;;;;;4983720;28;21008;-65
2022/05/16 09:10:22;;;;;;;6.57;5.97;;;26.80;99.90;;;;;;4987340;28;20597;-65
2022/05/16 09:12:56;;;;;;;7.10;6.40;;;26.40;99.90;;;;;;4987209;28;20434;-65
2022/05/16 09:15:43;;;;;;;5.43;4.90;;;26.50;99.90;;;;;;4981907;28;20484;-65
2022/05/16 09:18:14;;;;;;;9.00;6.73;;;26.50;99.90;;;;;;4987520;28;20814;-66
2022/05/16 09:20:54;;;;;;;18.10;13.40;;;26.60;99.90;;;;;;4986493;28;20466;-65
2022/05/16 09:24:05;;;;;;;7.47;6.10;;;27.20;99.90;;;;;;4983937;28;20435;-65
2022/05/16 09:26:47;;;;;;;6.37;5.77;;;27.10;99.90;;;;;;4986912;28;20533;-65
2022/05/16 09:29:17;;;;;;;6.50;6.00;;;27.10;99.90;;;;;;4986339;28;20442;-64
2022/05/16 09:31:45;;;;;;;7.53;6.37;;;27.50;99.90;;;;;;4984618;28;20978;-65
2022/05/16 09:34:12;;;;;;;10.13;6.37;;;28.10;99.90;;;;;;4981395;28;20451;-64
2022/05/16 09:36:45;;;;;;;7.03;6.20;;;29.30;99.90;;;;;;4988110;28;20947;-65
2022/05/16 09:39:12;;;;;;;7.70;6.20;;;29.00;99.20;;;;;;4986789;28;20437;-66
2022/05/16 09:41:45;;;;;;;9.20;8.07;;;28.60;99.10;;;;;;4985694;28;20469;-64
2022/05/16 09:44:46;;;;;;;7.83;5.87;;;28.20;99.20;;;;;;4982478;28;20483;-64
2022/05/16 09:47:34;;;;;;;8.40;5.97;;;27.60;98.90;;;;;;4983061;28;20490;-65
2022/05/16 09:50:05;;;;;;;6.90;6.03;;;28.00;99.10;;;;;;4983936;28;20441;-66
2022/05/16 09:52:32;;;;;;;8.30;6.70;;;28.10;98.80;;;;;;4985618;28;20490;-66
2022/05/16 09:55:03;;;;;;;6.17;5.57;;;28.20;98.80;;;;;;5003637;23;20643;-65
2022/05/16 09:57:32;;;;;;;8.13;6.40;;;29.20;97.70;;;;;;4985052;28;20435;-65
2022/05/16 10:00:38;;;;;;;7.17;5.60;;;29.60;97.50;;;;;;4986546;28;20508;-65
2022/05/16 10:03:07;;;;;;;9.10;6.07;;;29.10;95.40;;;;;;4987443;28;20450;-65
2022/05/16 10:05:33;;;;;;;6.10;5.57;;;28.50;96.10;;;;;;4969148;28;20463;-65
2022/05/16 10:08:02;;;;;;;5.80;5.37;;;28.50;96.80;;;;;;4969621;28;20952;-65
2022/05/16 10:10:36;;;;;;;9.83;5.70;;;29.00;95.60;;;;;;4971056;28;20221;-65
2022/05/16 10:13:03;;;;;;;5.70;5.20;;;29.20;95.50;;;;;;4967750;28;20443;-64
2022/05/16 10:15:31;;;;;;;9.37;5.70;;;29.50;95.50;;;;;;4969267;28;20971;-63
2022/05/16 10:17:59;;;;;;;7.70;5.77;;;30.70;81.90;;;;;;4970354;28;20870;-63
2022/05/16 10:20:36;;;;;;;7.00;6.40;;;31.70;78.20;;;;;;4969808;28;20494;-64
2022/05/16 10:23:06;;;;;;;6.10;5.50;;;32.70;75.30;;;;;;4970089;28;20440;-64
2022/05/16 10:25:44;;;;;;;5.97;5.37;;;33.00;72.50;;;;;;4966397;28;20455;-64
2022/05/16 10:28:19;;;;;;;6.17;5.43;;;33.40;68.40;;;;;;4963177;28;20868;-63
2022/05/16 10:33:33;;;;;;;14.70;13.50;;;30.70;72.30;;;;;;4970011;28;20458;-64
2022/05/16 10:36:05;;;;;;;6.90;6.20;;;29.50;75.10;;;;;;4962234;28;20481;-65
2022/05/16 10:39:00;;;;;;;13.63;12.43;;;29.10;75.30;;;;;;4967390;28;20482;-65
2022/05/16 10:41:31;;;;;;;7.20;6.00;;;29.10;75.90;;;;;;4961624;28;20855;-65
2022/05/16 10:44:25;;;;;;;6.40;5.80;;;28.70;77.60;;;;;;4960708;28;21525;-65
2022/05/16 10:47:03;;;;;;;9.77;5.60;;;28.50;78.30;;;;;;4960372;28;20530;-65
2022/05/16 10:49:38;;;;;;;5.70;5.20;;;28.10;77.50;;;;;;4959388;28;20447;-64
2022/05/16 10:52:25;;;;;;;6.97;4.90;;;28.00;79.20;;;;;;4960942;28;20809;-64
2022/05/16 10:54:51;;;;;;;5.90;5.30;;;27.60;79.50;;;;;;4960736;28;20841;-64
2022/05/16 10:57:29;;;;;;;5.77;4.53;;;27.90;79.90;;;;;;4961112;28;20449;-64
2022/05/16 11:00:11;;;;;;;7.50;4.00;;;28.00;79.70;;;;;;4964162;28;20233;-63
2022/05/16 11:03:24;;;;;;;5.17;4.53;;;27.30;80.60;;;;;;4959142;28;20834;-63
2022/05/16 11:06:14;;;;;;;6.77;3.70;;;26.90;82.10;;;;;;4958427;28;20503;-67
2022/05/16 11:09:03;;;;;;;6.40;3.93;;;26.90;81.50;;;;;;4962918;28;20446;-68
2022/05/16 11:11:52;;;;;;;7.20;4.73;;;26.60;83.70;;;;;;4935154;28;21327;-67
2022/05/16 11:14:50;;;;;;;5.10;4.43;;;25.80;85.20;;;;;;4971247;28;20459;-68
2022/05/16 11:17:49;;;;;;;4.57;4.17;;;25.40;87.60;;;;;;4958004;28;20427;-68
2022/05/16 11:20:27;;;;;;;4.13;3.73;;;24.80;90.00;;;;;;4963589;28;21092;-68
2022/05/16 11:23:05;;;;;;;4.87;3.93;;;24.30;90.80;;;;;;4974993;28;20985;-68
2022/05/16 11:26:03;;;;;;;4.87;3.50;;;23.90;91.00;;;;;;4962488;28;21043;-67
2022/05/16 11:29:16;;;;;;;4.03;3.63;;;23.70;91.90;;;;;;4961666;28;20521;-68
2022/05/16 11:31:34;;;;;;;9.93;5.63;;;23.40;92.10;;;;;;4971525;28;20440;-66
2022/05/16 11:33:59;;;;;;;4.83;3.20;;;23.40;92.70;;;;;;4964624;28;20465;-67
2022/05/16 11:36:49;;;;;;;4.33;3.63;;;23.20;92.80;;;;;;4967871;28;20948;-66
2022/05/16 11:39:37;;;;;;;7.20;2.63;;;23.10;92.90;;;;;;4972279;28;20230;-66
2022/05/16 11:42:25;;;;;;;2.60;2.33;;;22.90;92.90;;;;;;4972261;28;20459;-67
2022/05/16 11:45:06;;;;;;;4.90;2.17;;;22.80;92.70;;;;;;4968026;28;20459;-66
2022/05/16 11:47:48;;;;;;;4.77;2.83;;;22.80;93.20;;;;;;4970774;28;20944;-66
2022/05/16 11:50:39;;;;;;;5.73;4.37;;;22.50;92.80;;;;;;4968183;28;20449;-66
2022/05/16 11:53:48;;;;;;;3.50;2.80;;;22.40;92.80;;;;;;4951791;28;20451;-66
2022/05/16 12:02:22;;;;;;;6.20;3.00;;;21.60;97.70;;;;;;4969517;28;20883;-66
2022/05/16 12:05:03;;;;;;;4.10;3.70;;;20.90;99.90;;;;;;4968288;28;20463;-67
2022/05/16 12:07:31;;;;;;;6.03;3.63;;;19.90;99.90;;;;;;4967566;28;20847;-67
2022/05/16 12:10:03;;;;;;;5.43;3.10;;;19.10;99.90;;;;;;4972154;28;20444;-66
2022/05/16 12:12:41;;;;;;;3.17;2.87;;;18.80;99.90;;;;;;4968846;28;20439;-66
2022/05/16 12:15:15;;;;;;;4.93;3.00;;;18.70;99.90;;;;;;4969935;28;20964;-66
2022/05/16 12:18:05;;;;;;;4.53;2.77;;;18.70;99.90;;;;;;4972461;28;20430;-66
2022/05/16 12:20:43;;;;;;;3.83;3.43;;;18.60;99.90;;;;;;4958531;28;20458;-66
2022/05/16 12:23:11;;;;;;;7.90;2.80;;;18.60;99.90;;;;;;4972436;28;20783;-67
2022/05/16 12:25:38;;;;;;;4.07;3.67;;;18.60;99.90;;;;;;4962054;28;20498;-66
2022/05/16 12:28:13;;;;;;;4.30;2.93;;;18.60;99.90;;;;;;4968624;28;20493;-66
2022/05/16 12:30:43;;;;;;;5.23;3.40;;;18.60;99.90;;;;;;4966749;28;20944;-65
2022/05/16 12:33:53;;;;;;;5.57;3.50;;;18.70;99.90;;;;;;4966095;28;20451;-66
2022/05/16 12:36:23;;;;;;;5.93;3.57;;;18.70;99.90;;;;;;4960918;28;20447;-66
2022/05/16 12:39:09;;;;;;;5.00;4.50;;;18.60;99.90;;;;;;4967052;28;21031;-66
2022/05/16 12:42:07;;;;;;;5.20;3.40;;;18.60;99.90;;;;;;4965565;28;20514;-66
2022/05/16 12:44:54;;;;;;;4.30;3.47;;;18.50;99.90;;;;;;4962029;28;20870;-67
2022/05/16 12:47:58;;;;;;;17.23;4.50;;;18.60;99.90;;;;;;4967285;28;20551;-67
2022/05/16 12:50:48;;;;;;;5.27;3.53;;;18.90;99.90;;;;;;4965342;28;20446;-66
2022/05/16 12:53:44;;;;;;;6.03;3.40;;;19.30;99.90;;;;;;4956184;28;20439;-66
2022/05/16 12:56:24;;;;;;;7.47;3.73;;;19.80;99.90;;;;;;4970006;28;20870;-66
2022/05/16 12:59:14;;;;;;;6.67;3.50;;;20.10;99.90;;;;;;4966607;28;20443;-63
2022/05/16 13:01:51;;;;;;;5.40;3.03;;;20.60;99.90;;;;;;4965119;28;20462;-63
2022/05/16 13:04:27;;;;;;;5.43;2.93;;;21.50;99.90;;;;;;4965431;28;20605;-63
2022/05/16 13:07:13;;;;;;;3.77;3.40;;;22.60;99.90;;;;;;4967283;28;20522;-63
2022/05/16 13:09:54;;;;;;;5.00;3.27;;;23.60;99.90;;;;;;4967513;28;20431;-63
2022/05/16 13:12:59;;;;;;;4.00;2.80;;;25.90;99.90;;;;;;4966829;28;20443;-63
2022/05/16 13:15:41;;;;;;;2.73;2.20;;;28.30;99.90;;;;;;4878524;28;20482;-64
2022/05/16 13:18:12;;;;;;;5.43;4.23;;;27.70;99.90;;;;;;4962739;28;20801;-63
2022/05/16 13:20:43;;;;;;;8.17;4.10;;;27.60;99.90;;;;;;4968933;28;20957;-63
2022/05/16 13:23:08;;;;;;;7.00;3.10;;;26.40;99.90;;;;;;4956202;28;20877;-63
2022/05/16 13:29:21;;;;;;;3.17;2.73;;;25.30;99.90;;;;;;4967096;28;20460;-63
2022/05/16 13:31:07;;;;;;;4.20;3.27;;;24.80;99.90;;;;;;4968753;28;21014;-64
2022/05/16 13:33:39;;;;;;;4.37;3.70;;;24.60;99.90;;;;;;4966644;28;20452;-64
2022/05/16 13:36:15;;;;;;;5.90;3.80;;;23.80;99.90;;;;;;4968624;28;20475;-63
2022/05/16 13:38:41;;;;;;;4.17;3.50;;;23.30;99.90;;;;;;4968383;28;20887;-64